sensor_id;sensor_type;location;lat;lon;timestamp;pressure;altitude;pressure_sealevel;temperature;humidity
23363;BME280;11853;48.080;11.960;2023-02-28T00:00:24;95214.66;;;-1.71;90.18
23363;BME280;11853;48.080;11.960;2023-02-28T00:02:50;95210.50;;;-1.75;91.01
23363;BME280;11853;48.080;11.960;2023-02-28T00:05:18;95206.78;;;-1.50;89.93
23363;BME280;11853;48.080;11.960;2023-02-28T00:07:44;95200.44;;;-1.64;89.57
23363;BME280;11853;48.080;11.960;2023-02-28T00:10:13;95193.44;;;-1.62;90.02
23363;BME280;11853;48.080;11.960;2023-02-28T00:12:38;95191.53;;;-1.58;90.82
23363;BME280;11853;48.080;11.960;2023-02-28T00:15:09;95194.34;;;-1.63;90.95
23363;BME280;11853;48.080;11.960;2023-02-28T00:17:36;95193.72;;;-1.68;90.81
23363;BME280;11853;48.080;11.960;2023-02-28T00:20:02;95190.00;;;-1.62;90.62
23363;BME280;11853;48.080;11.960;2023-02-28T00:22:30;95198.28;;;-1.73;91.10
23363;BME280;11853;48.080;11.960;2023-02-28T00:24:55;95198.13;;;-1.70;91.68
23363;BME280;11853;48.080;11.960;2023-02-28T00:27:22;95195.53;;;-1.70;91.75
23363;BME280;11853;48.080;11.960;2023-02-28T00:29:48;95191.94;;;-1.86;92.20
23363;BME280;11853;48.080;11.960;2023-02-28T00:32:14;95192.59;;;-1.81;91.71
23363;BME280;11853;48.080;11.960;2023-02-28T00:34:39;95189.97;;;-1.81;92.49
23363;BME280;11853;48.080;11.960;2023-02-28T00:37:06;95186.06;;;-1.71;92.40
23363;BME280;11853;48.080;11.960;2023-02-28T00:39:34;95187.53;;;-1.65;92.17
23363;BME280;11853;48.080;11.960;2023-02-28T00:42:00;95188.03;;;-1.76;91.63
23363;BME280;11853;48.080;11.960;2023-02-28T00:44:26;95189.44;;;-1.88;91.91
23363;BME280;11853;48.080;11.960;2023-02-28T00:46:51;95189.72;;;-1.94;93.55
23363;BME280;11853;48.080;11.960;2023-02-28T00:49:20;95186.63;;;-1.83;93.88
23363;BME280;11853;48.080;11.960;2023-02-28T00:51:46;95188.44;;;-1.85;92.98
23363;BME280;11853;48.080;11.960;2023-02-28T00:54:11;95191.53;;;-1.77;93.16
23363;BME280;11853;48.080;11.960;2023-02-28T00:56:37;95188.94;;;-1.77;93.00
23363;BME280;11853;48.080;11.960;2023-02-28T00:59:03;95193.28;;;-1.77;93.09
23363;BME280;11853;48.080;11.960;2023-02-28T01:01:29;95190.28;;;-1.87;94.00
23363;BME280;11853;48.080;11.960;2023-02-28T01:03:55;95190.91;;;-1.82;93.51
23363;BME280;11853;48.080;11.960;2023-02-28T01:06:21;95188.16;;;-1.79;93.33
23363;BME280;11853;48.080;11.960;2023-02-28T01:08:47;95184.03;;;-1.83;93.95
23363;BME280;11853;48.080;11.960;2023-02-28T01:11:15;95172.91;;;-1.87;93.49
23363;BME280;11853;48.080;11.960;2023-02-28T01:13:42;95166.19;;;-1.91;94.72
23363;BME280;11853;48.080;11.960;2023-02-28T01:16:08;95170.53;;;-1.91;94.91
23363;BME280;11853;48.080;11.960;2023-02-28T01:18:33;95170.09;;;-1.82;94.70
23363;BME280;11853;48.080;11.960;2023-02-28T01:21:04;95171.88;;;-1.83;93.96
23363;BME280;11853;48.080;11.960;2023-02-28T01:23:30;95166.22;;;-1.92;95.30
23363;BME280;11853;48.080;11.960;2023-02-28T01:25:56;95170.59;;;-1.93;94.53
23363;BME280;11853;48.080;11.960;2023-02-28T01:28:21;95176.50;;;-1.89;94.93
23363;BME280;11853;48.080;11.960;2023-02-28T01:30:48;95165.53;;;-1.96;95.51
23363;BME280;11853;48.080;11.960;2023-02-28T01:33:15;95170.53;;;-1.91;95.07
23363;BME280;11853;48.080;11.960;2023-02-28T01:35:40;95168.91;;;-1.94;95.49
23363;BME280;11853;48.080;11.960;2023-02-28T01:38:06;95169.91;;;-1.96;95.59
23363;BME280;11853;48.080;11.960;2023-02-28T01:40:32;95165.47;;;-1.94;95.79
23363;BME280;11853;48.080;11.960;2023-02-28T01:42:57;95163.28;;;-2.04;95.03
23363;BME280;11853;48.080;11.960;2023-02-28T01:45:29;95160.00;;;-1.88;96.31
23363;BME280;11853;48.080;11.960;2023-02-28T01:48:02;95161.97;;;-1.93;95.68
23363;BME280;11853;48.080;11.960;2023-02-28T01:50:34;95155.84;;;-1.92;95.68
23363;BME280;11853;48.080;11.960;2023-02-28T01:53:03;95158.03;;;-2.02;96.21
23363;BME280;11853;48.080;11.960;2023-02-28T01:55:30;95154.59;;;-2.02;95.80
23363;BME280;11853;48.080;11.960;2023-02-28T01:58:02;95155.91;;;-1.94;96.07
23363;BME280;11853;48.080;11.960;2023-02-28T02:00:30;95157.09;;;-2.01;96.13
23363;BME280;11853;48.080;11.960;2023-02-28T02:03:08;95146.16;;;-2.08;97.12
23363;BME280;11853;48.080;11.960;2023-02-28T02:05:39;95147.69;;;-2.04;96.87
23363;BME280;11853;48.080;11.960;2023-02-28T02:08:21;95140.53;;;-1.98;96.74
23363;BME280;11853;48.080;11.960;2023-02-28T02:10:51;95136.25;;;-1.99;96.72
23363;BME280;11853;48.080;11.960;2023-02-28T02:19:00;95140.25;;;-2.11;97.74
23363;BME280;11853;48.080;11.960;2023-02-28T02:28:17;95143.88;;;-2.34;98.33
23363;BME280;11853;48.080;11.960;2023-02-28T02:40:16;95152.19;;;-2.26;100.00
23363;BME280;11853;48.080;11.960;2023-02-28T02:43:13;95153.44;;;-2.16;98.53
23363;BME280;11853;48.080;11.960;2023-02-28T02:45:50;95142.63;;;-2.07;97.92
23363;BME280;11853;48.080;11.960;2023-02-28T02:48:19;95147.06;;;-2.09;98.67
23363;BME280;11853;48.080;11.960;2023-02-28T02:50:53;95135.94;;;-2.12;98.22
23363;BME280;11853;48.080;11.960;2023-02-28T02:53:24;95141.91;;;-2.29;98.46
23363;BME280;11853;48.080;11.960;2023-02-28T02:55:53;95144.72;;;-2.15;98.68
23363;BME280;11853;48.080;11.960;2023-02-28T02:58:23;95136.72;;;-2.10;99.12
23363;BME280;11853;48.080;11.960;2023-02-28T03:00:53;95138.84;;;-1.99;97.94
23363;BME280;11853;48.080;11.960;2023-02-28T03:03:21;95138.34;;;-2.08;97.68
23363;BME280;11853;48.080;11.960;2023-02-28T03:05:55;95137.00;;;-2.16;99.13
23363;BME280;11853;48.080;11.960;2023-02-28T03:08:21;95137.72;;;-2.13;99.14
23363;BME280;11853;48.080;11.960;2023-02-28T03:10:51;95139.09;;;-2.24;99.95
23363;BME280;11853;48.080;11.960;2023-02-28T03:24:27;95132.44;;;-2.30;100.00
23363;BME280;11853;48.080;11.960;2023-02-28T03:27:09;95132.22;;;-2.07;99.92
23363;BME280;11853;48.080;11.960;2023-02-28T03:29:45;95139.94;;;-2.24;99.48
23363;BME280;11853;48.080;11.960;2023-02-28T03:32:21;95139.94;;;-2.24;100.00
23363;BME280;11853;48.080;11.960;2023-02-28T03:35:01;95137.34;;;-2.24;100.00
23363;BME280;11853;48.080;11.960;2023-02-28T03:37:32;95136.47;;;-2.23;100.00
23363;BME280;11853;48.080;11.960;2023-02-28T03:40:06;95142.91;;;-2.13;99.35
23363;BME280;11853;48.080;11.960;2023-02-28T03:42:36;95136.69;;;-2.29;99.95
23363;BME280;11853;48.080;11.960;2023-02-28T03:45:15;95134.47;;;-2.18;99.65
23363;BME280;11853;48.080;11.960;2023-02-28T03:47:54;95136.81;;;-2.12;99.45
23363;BME280;11853;48.080;11.960;2023-02-28T03:50:42;95145.78;;;-2.19;100.00
23363;BME280;11853;48.080;11.960;2023-02-28T03:53:29;95138.19;;;-2.23;100.00
23363;BME280;11853;48.080;11.960;2023-02-28T03:58:35;95144.25;;;-2.43;100.00
23363;BME280;11853;48.080;11.960;2023-02-28T04:01:10;95153.53;;;-2.38;100.00
23363;BME280;11853;48.080;11.960;2023-02-28T04:03:38;95139.94;;;-2.24;100.00
23363;BME280;11853;48.080;11.960;2023-02-28T04:06:06;95149.22;;;-2.37;100.00
23363;BME280;11853;48.080;11.960;2023-02-28T04:08:33;95151.03;;;-2.39;100.00
23363;BME280;11853;48.080;11.960;2023-02-28T04:11:07;95157.91;;;-2.38;100.00
23363;BME280;11853;48.080;11.960;2023-02-28T04:13:34;95164.56;;;-2.33;100.00
23363;BME280;11853;48.080;11.960;2023-02-28T04:15:59;95168.69;;;-2.47;100.00
23363;BME280;11853;48.080;11.960;2023-02-28T04:18:25;95167.84;;;-2.48;100.00
23363;BME280;11853;48.080;11.960;2023-02-28T04:20:50;95168.75;;;-2.29;100.00
23363;BME280;11853;48.080;11.960;2023-02-28T04:23:16;95169.72;;;-2.31;100.00
23363;BME280;11853;48.080;11.960;2023-02-28T04:25:42;95173.72;;;-2.24;100.00
23363;BME280;11853;48.080;11.960;2023-02-28T04:28:08;95179.84;;;-2.25;100.00
23363;BME280;11853;48.080;11.960;2023-02-28T04:30:35;95176.91;;;-2.17;100.00
23363;BME280;11853;48.080;11.960;2023-02-28T04:33:01;95184.25;;;-2.27;100.00
23363;BME280;11853;48.080;11.960;2023-02-28T04:35:26;95177.69;;;-2.36;100.00
23363;BME280;11853;48.080;11.960;2023-02-28T04:37:52;95173.06;;;-2.29;100.00
23363;BME280;11853;48.080;11.960;2023-02-28T04:43:39;95166.75;;;-2.42;100.00
23363;BME280;11853;48.080;11.960;2023-02-28T04:46:05;95172.91;;;-2.45;100.00
23363;BME280;11853;48.080;11.960;2023-02-28T04:48:33;95174.78;;;-2.28;100.00
23363;BME280;11853;48.080;11.960;2023-02-28T04:51:04;95174.28;;;-2.36;100.00
23363;BME280;11853;48.080;11.960;2023-02-28T04:54:07;95169.44;;;-2.25;100.00
23363;BME280;11853;48.080;11.960;2023-02-28T04:56:33;95169.94;;;-2.17;100.00
23363;BME280;11853;48.080;11.960;2023-02-28T04:58:58;95172.13;;;-2.08;100.00
23363;BME280;11853;48.080;11.960;2023-02-28T05:03:50;95178.16;;;-2.26;100.00
23363;BME280;11853;48.080;11.960;2023-02-28T05:06:16;95178.81;;;-2.02;100.00
23363;BME280;11853;48.080;11.960;2023-02-28T05:08:42;95177.47;;;-2.11;100.00
23363;BME280;11853;48.080;11.960;2023-02-28T05:11:29;95185.91;;;-2.06;100.00
23363;BME280;11853;48.080;11.960;2023-02-28T05:13:59;95193.06;;;-2.11;100.00
23363;BME280;11853;48.080;11.960;2023-02-28T05:16:26;95191.25;;;-2.09;100.00
23363;BME280;11853;48.080;11.960;2023-02-28T05:18:51;95197.16;;;-2.05;100.00
23363;BME280;11853;48.080;11.960;2023-02-28T05:21:25;95191.25;;;-2.09;100.00
23363;BME280;11853;48.080;11.960;2023-02-28T05:23:52;95189.41;;;-2.07;100.00
23363;BME280;11853;48.080;11.960;2023-02-28T05:26:19;95196.03;;;-1.99;100.00
23363;BME280;11853;48.080;11.960;2023-02-28T05:28:44;95200.44;;;-2.01;100.00
23363;BME280;11853;48.080;11.960;2023-02-28T05:31:13;95203.19;;;-2.05;100.00
23363;BME280;11853;48.080;11.960;2023-02-28T05:33:39;95195.75;;;-1.93;100.00
23363;BME280;11853;48.080;11.960;2023-02-28T05:36:05;95197.72;;;-1.79;100.00
23363;BME280;11853;48.080;11.960;2023-02-28T05:38:31;95211.41;;;-1.76;100.00
23363;BME280;11853;48.080;11.960;2023-02-28T05:40:56;95198.56;;;-1.79;100.00
23363;BME280;11853;48.080;11.960;2023-02-28T05:43:22;95191.75;;;-1.82;100.00
23363;BME280;11853;48.080;11.960;2023-02-28T05:45:47;95200.53;;;-1.84;100.00
23363;BME280;11853;48.080;11.960;2023-02-28T05:48:13;95197.38;;;-1.91;100.00
23363;BME280;11853;48.080;11.960;2023-02-28T05:50:39;95190.59;;;-1.95;100.00
23363;BME280;11853;48.080;11.960;2023-02-28T05:53:05;95204.38;;;-1.93;100.00
23363;BME280;11853;48.080;11.960;2023-02-28T05:55:30;95201.59;;;-1.88;100.00
23363;BME280;11853;48.080;11.960;2023-02-28T05:57:56;95206.97;;;-1.93;100.00
23363;BME280;11853;48.080;11.960;2023-02-28T06:00:21;95204.72;;;-2.00;100.00
23363;BME280;11853;48.080;11.960;2023-02-28T06:02:47;95215.47;;;-1.89;100.00
23363;BME280;11853;48.080;11.960;2023-02-28T06:05:15;95214.34;;;-1.84;100.00
23363;BME280;11853;48.080;11.960;2023-02-28T06:07:41;95219.78;;;-1.88;100.00
23363;BME280;11853;48.080;11.960;2023-02-28T06:10:09;95221.31;;;-1.84;100.00
23363;BME280;11853;48.080;11.960;2023-02-28T06:12:34;95221.31;;;-1.84;100.00
23363;BME280;11853;48.080;11.960;2023-02-28T06:15:00;95226.44;;;-2.01;100.00
23363;BME280;11853;48.080;11.960;2023-02-28T06:17:25;95227.78;;;-1.93;100.00
23363;BME280;11853;48.080;11.960;2023-02-28T06:19:51;95224.84;;;-1.85;100.00
23363;BME280;11853;48.080;11.960;2023-02-28T06:22:16;95228.41;;;-1.88;100.00
23363;BME280;11853;48.080;11.960;2023-02-28T06:24:42;95233.69;;;-1.89;100.00
23363;BME280;11853;48.080;11.960;2023-02-28T06:27:08;95237.19;;;-1.90;100.00
23363;BME280;11853;48.080;11.960;2023-02-28T06:29:34;95237.19;;;-1.90;100.00
23363;BME280;11853;48.080;11.960;2023-02-28T06:32:00;95238.72;;;-1.86;100.00
23363;BME280;11853;48.080;11.960;2023-02-28T06:34:25;95248.66;;;-1.94;100.00
23363;BME280;11853;48.080;11.960;2023-02-28T06:36:51;95244.72;;;-1.84;100.00
23363;BME280;11853;48.080;11.960;2023-02-28T06:39:17;95253.66;;;-1.71;100.00
23363;BME280;11853;48.080;11.960;2023-02-28T06:41:43;95250.44;;;-1.76;100.00
23363;BME280;11853;48.080;11.960;2023-02-28T06:44:18;95254.22;;;-1.83;100.00
23363;BME280;11853;48.080;11.960;2023-02-28T06:46:45;95266.31;;;-1.82;100.00
23363;BME280;11853;48.080;11.960;2023-02-28T06:49:11;95250.00;;;-1.29;100.00
23363;BME280;11853;48.080;11.960;2023-02-28T06:51:40;95261.81;;;-1.03;100.00
23363;BME280;11853;48.080;11.960;2023-02-28T06:54:07;95263.31;;;-0.80;100.00
23363;BME280;11853;48.080;11.960;2023-02-28T06:56:35;95259.59;;;-0.57;100.00
23363;BME280;11853;48.080;11.960;2023-02-28T06:59:01;95262.72;;;-0.33;100.00
23363;BME280;11853;48.080;11.960;2023-02-28T07:01:26;95268.03;;;-0.17;100.00
23363;BME280;11853;48.080;11.960;2023-02-28T07:03:54;95272.69;;;-0.24;100.00
23363;BME280;11853;48.080;11.960;2023-02-28T07:06:21;95265.00;;;-0.27;100.00
23363;BME280;11853;48.080;11.960;2023-02-28T07:08:48;95267.16;;;-0.17;100.00
23363;BME280;11853;48.080;11.960;2023-02-28T07:11:15;95267.09;;;-0.33;99.54
23363;BME280;11853;48.080;11.960;2023-02-28T07:13:40;95271.19;;;-0.81;97.60
23363;BME280;11853;48.080;11.960;2023-02-28T07:16:08;95268.44;;;-0.78;99.04
23363;BME280;11853;48.080;11.960;2023-02-28T07:18:35;95262.31;;;-0.77;99.51
23363;BME280;11853;48.080;11.960;2023-02-28T07:21:06;95269.34;;;-0.79;99.88
23363;BME280;11853;48.080;11.960;2023-02-28T07:23:32;95271.16;;;-0.99;95.76
23363;BME280;11853;48.080;11.960;2023-02-28T07:25:58;95268.00;;;-1.05;97.04
23363;BME280;11853;48.080;11.960;2023-02-28T07:28:24;95274.06;;;-1.43;97.49
23363;BME280;11853;48.080;11.960;2023-02-28T07:30:49;95277.22;;;-1.55;98.62
23363;BME280;11853;48.080;11.960;2023-02-28T07:33:15;95274.88;;;-1.61;99.11
23363;BME280;11853;48.080;11.960;2023-02-28T07:35:41;95278.09;;;-1.75;100.00
23363;BME280;11853;48.080;11.960;2023-02-28T07:38:06;95281.22;;;-1.67;100.00
23363;BME280;11853;48.080;11.960;2023-02-28T07:40:36;95271.59;;;-1.65;100.00
23363;BME280;11853;48.080;11.960;2023-02-28T07:43:02;95277.72;;;-1.66;100.00
23363;BME280;11853;48.080;11.960;2023-02-28T07:45:29;95281.50;;;-1.73;100.00
23363;BME280;11853;48.080;11.960;2023-02-28T07:47:55;95272.50;;;-1.47;99.51
23363;BME280;11853;48.080;11.960;2023-02-28T07:50:20;95274.78;;;-1.39;99.24
23363;BME280;11853;48.080;11.960;2023-02-28T07:52:46;95277.66;;;-1.45;99.69
23363;BME280;11853;48.080;11.960;2023-02-28T07:55:12;95272.66;;;-1.50;99.68
23363;BME280;11853;48.080;11.960;2023-02-28T07:57:40;95271.53;;;-1.44;99.54
23363;BME280;11853;48.080;11.960;2023-02-28T08:00:07;95275.81;;;-1.43;99.72
23363;BME280;11853;48.080;11.960;2023-02-28T08:02:35;95280.63;;;-1.34;98.84
23363;BME280;11853;48.080;11.960;2023-02-28T08:05:01;95272.44;;;-1.45;99.16
23363;BME280;11853;48.080;11.960;2023-02-28T08:07:26;95284.31;;;-1.59;98.86
23363;BME280;11853;48.080;11.960;2023-02-28T08:09:52;95281.09;;;-1.45;99.24
23363;BME280;11853;48.080;11.960;2023-02-28T08:12:17;95286.00;;;-1.58;99.83
23363;BME280;11853;48.080;11.960;2023-02-28T08:14:43;95282.06;;;-1.47;99.53
23363;BME280;11853;48.080;11.960;2023-02-28T08:17:09;95283.47;;;-1.59;99.68
23363;BME280;11853;48.080;11.960;2023-02-28T08:19:35;95292.34;;;-1.44;99.61
23363;BME280;11853;48.080;11.960;2023-02-28T08:22:01;95281.50;;;-1.35;98.99
23363;BME280;11853;48.080;11.960;2023-02-28T08:24:26;95288.13;;;-1.47;100.00
23363;BME280;11853;48.080;11.960;2023-02-28T08:26:52;95294.00;;;-1.43;99.60
23363;BME280;11853;48.080;11.960;2023-02-28T08:29:18;95296.72;;;-1.26;99.00
23363;BME280;11853;48.080;11.960;2023-02-28T08:31:43;95293.19;;;-1.44;99.29
23363;BME280;11853;48.080;11.960;2023-02-28T08:34:12;95292.47;;;-1.47;97.74
23363;BME280;11853;48.080;11.960;2023-02-28T08:36:38;95296.75;;;-1.46;100.00
23363;BME280;11853;48.080;11.960;2023-02-28T08:39:05;95300.91;;;-1.23;98.63
23363;BME280;11853;48.080;11.960;2023-02-28T08:41:31;95306.84;;;-1.20;98.73
23363;BME280;11853;48.080;11.960;2023-02-28T08:43:57;95305.22;;;-1.22;99.05
23363;BME280;11853;48.080;11.960;2023-02-28T08:46:23;95305.00;;;-1.37;98.27
23363;BME280;11853;48.080;11.960;2023-02-28T08:48:52;95312.19;;;-1.23;97.79
23363;BME280;11853;48.080;11.960;2023-02-28T08:51:19;95309.44;;;-1.20;99.17
23363;BME280;11853;48.080;11.960;2023-02-28T08:53:54;95323.16;;;-1.16;98.43
23363;BME280;11853;48.080;11.960;2023-02-28T08:56:21;95303.31;;;-1.19;98.95
23363;BME280;11853;48.080;11.960;2023-02-28T08:58:48;95311.13;;;-1.19;99.37
23363;BME280;11853;48.080;11.960;2023-02-28T09:01:20;95315.56;;;-1.02;99.00
23363;BME280;11853;48.080;11.960;2023-02-28T09:03:50;95317.50;;;-0.88;96.72
23363;BME280;11853;48.080;11.960;2023-02-28T09:06:17;95322.28;;;-0.98;96.62
23363;BME280;11853;48.080;11.960;2023-02-28T09:08:43;95319.28;;;-0.88;96.27
23363;BME280;11853;48.080;11.960;2023-02-28T09:11:09;95330.94;;;-0.78;95.42
23363;BME280;11853;48.080;11.960;2023-02-28T09:13:35;95328.13;;;-0.93;95.43
23363;BME280;11853;48.080;11.960;2023-02-28T09:16:04;95328.38;;;-0.97;96.84
23363;BME280;11853;48.080;11.960;2023-02-28T09:18:31;95337.72;;;-0.93;96.71
23363;BME280;11853;48.080;11.960;2023-02-28T09:20:57;95336.44;;;-1.03;95.90
23363;BME280;11853;48.080;11.960;2023-02-28T09:23:23;95343.63;;;-1.08;97.23
23363;BME280;11853;48.080;11.960;2023-02-28T09:25:51;95341.84;;;-0.89;97.00
23363;BME280;11853;48.080;11.960;2023-02-28T09:28:17;95353.13;;;-0.88;96.87
23363;BME280;11853;48.080;11.960;2023-02-28T09:30:49;95343.84;;;-0.94;96.69
23363;BME280;11853;48.080;11.960;2023-02-28T09:33:17;95343.31;;;-0.83;96.85
23363;BME280;11853;48.080;11.960;2023-02-28T09:35:44;95348.81;;;-0.71;95.91
23363;BME280;11853;48.080;11.960;2023-02-28T09:38:10;95353.94;;;-0.69;94.22
23363;BME280;11853;48.080;11.960;2023-02-28T09:41:01;95362.38;;;-0.64;94.20
23363;BME280;11853;48.080;11.960;2023-02-28T09:43:41;95365.34;;;-0.72;95.42
23363;BME280;11853;48.080;11.960;2023-02-28T09:46:18;95362.09;;;-0.58;95.59
23363;BME280;11853;48.080;11.960;2023-02-28T09:48:48;95373.63;;;-0.63;95.73
23363;BME280;11853;48.080;11.960;2023-02-28T09:51:36;95365.47;;;-0.56;96.07
23363;BME280;11853;48.080;11.960;2023-02-28T09:54:05;95373.22;;;-0.54;95.47
23363;BME280;11853;48.080;11.960;2023-02-28T09:56:37;95379.94;;;-0.31;93.49
23363;BME280;11853;48.080;11.960;2023-02-28T10:10:04;95379.78;;;-0.28;92.58
23363;BME280;11853;48.080;11.960;2023-02-28T10:12:36;95386.16;;;-0.16;92.83
23363;BME280;11853;48.080;11.960;2023-02-28T10:15:04;95383.09;;;-0.07;93.58
23363;BME280;11853;48.080;11.960;2023-02-28T10:17:38;95386.66;;;-0.08;93.36
23363;BME280;11853;48.080;11.960;2023-02-28T10:20:09;95384.56;;;0.16;92.77
23363;BME280;11853;48.080;11.960;2023-02-28T10:25:34;95381.44;;;0.09;91.25
23363;BME280;11853;48.080;11.960;2023-02-28T10:28:09;95384.09;;;0.25;91.06
23363;BME280;11853;48.080;11.960;2023-02-28T10:30:55;95393.22;;;0.34;90.70
23363;BME280;11853;48.080;11.960;2023-02-28T10:33:31;95386.47;;;0.47;91.64
23363;BME280;11853;48.080;11.960;2023-02-28T10:35:58;95386.63;;;0.61;89.23
23363;BME280;11853;48.080;11.960;2023-02-28T10:38:26;95375.41;;;0.59;88.74
23363;BME280;11853;48.080;11.960;2023-02-28T10:41:09;95381.72;;;0.55;88.18
23363;BME280;11853;48.080;11.960;2023-02-28T10:43:36;95378.00;;;0.59;89.01
23363;BME280;11853;48.080;11.960;2023-02-28T10:51:03;95393.19;;;0.86;87.79
23363;BME280;11853;48.080;11.960;2023-02-28T10:53:34;95395.41;;;0.76;88.34
23363;BME280;11853;48.080;11.960;2023-02-28T11:01:45;95396.91;;;0.64;87.66
23363;BME280;11853;48.080;11.960;2023-02-28T11:06:59;95398.06;;;0.59;89.21
23363;BME280;11853;48.080;11.960;2023-02-28T11:09:30;95407.66;;;0.58;88.36
23363;BME280;11853;48.080;11.960;2023-02-28T11:11:56;95401.13;;;0.50;89.05
23363;BME280;11853;48.080;11.960;2023-02-28T11:14:26;95398.22;;;0.56;89.57
23363;BME280;11853;48.080;11.960;2023-02-28T11:16:53;95402.28;;;0.61;89.38
23363;BME280;11853;48.080;11.960;2023-02-28T11:19:38;95392.59;;;0.63;90.13
23363;BME280;11853;48.080;11.960;2023-02-28T11:22:05;95392.25;;;0.87;88.94
23363;BME280;11853;48.080;11.960;2023-02-28T11:24:36;95394.41;;;1.12;87.88
23363;BME280;11853;48.080;11.960;2023-02-28T11:27:03;95397.03;;;1.28;86.43
23363;BME280;11853;48.080;11.960;2023-02-28T11:29:31;95379.50;;;1.30;85.25
23363;BME280;11853;48.080;11.960;2023-02-28T11:34:42;95384.22;;;1.39;85.24
23363;BME280;11853;48.080;11.960;2023-02-28T11:37:17;95390.88;;;1.29;85.58
23363;BME280;11853;48.080;11.960;2023-02-28T11:39:44;95386.50;;;1.45;86.22
23363;BME280;11853;48.080;11.960;2023-02-28T11:46:20;95378.66;;;1.61;84.84
23363;BME280;11853;48.080;11.960;2023-02-28T12:02:26;95351.13;;;2.16;82.83
23363;BME280;11853;48.080;11.960;2023-02-28T12:05:01;95359.78;;;2.32;82.38
23363;BME280;11853;48.080;11.960;2023-02-28T12:21:35;95360.00;;;2.58;79.12
23363;BME280;11853;48.080;11.960;2023-02-28T12:26:50;95348.78;;;2.70;78.99
23363;BME280;11853;48.080;11.960;2023-02-28T12:29:43;95348.19;;;2.51;79.43
23363;BME280;11853;48.080;11.960;2023-02-28T12:32:27;95352.34;;;2.69;80.40
23363;BME280;11853;48.080;11.960;2023-02-28T12:35:00;95349.53;;;2.86;79.41
23363;BME280;11853;48.080;11.960;2023-02-28T12:37:49;95337.16;;;3.03;79.55
23363;BME280;11853;48.080;11.960;2023-02-28T12:40:27;95332.50;;;3.08;77.43
23363;BME280;11853;48.080;11.960;2023-02-28T12:43:04;95335.94;;;3.23;78.47
23363;BME280;11853;48.080;11.960;2023-02-28T12:45:52;95335.94;;;3.23;77.07
23363;BME280;11853;48.080;11.960;2023-02-28T12:48:28;95338.19;;;3.14;77.67
23363;BME280;11853;48.080;11.960;2023-02-28T12:50:57;95324.53;;;3.24;77.20
23363;BME280;11853;48.080;11.960;2023-02-28T12:53:41;95330.97;;;3.32;78.08
23363;BME280;11853;48.080;11.960;2023-02-28T12:59:03;95336.41;;;3.29;75.58
23363;BME280;11853;48.080;11.960;2023-02-28T13:01:42;95326.13;;;3.26;77.59
23363;BME280;11853;48.080;11.960;2023-02-28T13:09:38;95334.63;;;3.15;76.41
23363;BME280;11853;48.080;11.960;2023-02-28T13:12:14;95330.63;;;3.10;76.41
23363;BME280;11853;48.080;11.960;2023-02-28T13:14:40;95331.91;;;3.03;77.24
23363;BME280;11853;48.080;11.960;2023-02-28T13:22:37;95330.44;;;3.13;76.87
23363;BME280;11853;48.080;11.960;2023-02-28T13:27:53;95334.19;;;2.80;77.31
23363;BME280;11853;48.080;11.960;2023-02-28T13:33:35;95325.19;;;2.99;76.39
23363;BME280;11853;48.080;11.960;2023-02-28T13:38:46;95320.50;;;3.18;76.43
23363;BME280;11853;48.080;11.960;2023-02-28T13:44:20;95322.97;;;2.92;77.17
23363;BME280;11853;48.080;11.960;2023-02-28T13:51:51;95325.75;;;3.04;76.55
23363;BME280;11853;48.080;11.960;2023-02-28T14:00:20;95323.31;;;3.15;77.05
23363;BME280;11853;48.080;11.960;2023-02-28T14:05:36;95331.66;;;2.79;77.78
23363;BME280;11853;48.080;11.960;2023-02-28T14:08:16;95331.03;;;2.75;79.53
23363;BME280;11853;48.080;11.960;2023-02-28T14:10:52;95332.13;;;2.85;77.89
23363;BME280;11853;48.080;11.960;2023-02-28T14:13:43;95334.28;;;2.79;78.60
23363;BME280;11853;48.080;11.960;2023-02-28T14:16:10;95327.25;;;2.93;80.24
23363;BME280;11853;48.080;11.960;2023-02-28T14:18:42;95324.44;;;3.11;78.69
23363;BME280;11853;48.080;11.960;2023-02-28T14:21:28;95318.19;;;2.99;79.37
23363;BME280;11853;48.080;11.960;2023-02-28T14:26:55;95315.63;;;3.26;78.32
23363;BME280;11853;48.080;11.960;2023-02-28T14:32:21;95316.88;;;3.06;77.95
23363;BME280;11853;48.080;11.960;2023-02-28T14:34:53;95315.97;;;3.20;77.70
23363;BME280;11853;48.080;11.960;2023-02-28T14:37:25;95319.38;;;3.08;77.81
23363;BME280;11853;48.080;11.960;2023-02-28T14:39:53;95313.66;;;3.15;76.94
23363;BME280;11853;48.080;11.960;2023-02-28T14:42:30;95312.56;;;3.05;77.60
23363;BME280;11853;48.080;11.960;2023-02-28T14:44:56;95312.75;;;3.02;78.69
23363;BME280;11853;48.080;11.960;2023-02-28T14:47:23;95317.03;;;3.03;79.23
23363;BME280;11853;48.080;11.960;2023-02-28T14:49:52;95326.28;;;3.09;78.98
23363;BME280;11853;48.080;11.960;2023-02-28T14:52:21;95322.94;;;3.21;77.79
23363;BME280;11853;48.080;11.960;2023-02-28T14:55:01;95314.91;;;3.10;77.44
23363;BME280;11853;48.080;11.960;2023-02-28T14:57:56;95315.28;;;3.04;78.73
23363;BME280;11853;48.080;11.960;2023-02-28T15:00:29;95316.56;;;3.11;78.28
23363;BME280;11853;48.080;11.960;2023-02-28T15:02:59;95314.53;;;3.02;78.50
23363;BME280;11853;48.080;11.960;2023-02-28T15:05:34;95321.25;;;2.91;79.74
23363;BME280;11853;48.080;11.960;2023-02-28T15:08:12;95314.41;;;3.03;78.66
23363;BME280;11853;48.080;11.960;2023-02-28T15:10:42;95317.53;;;3.10;79.71
23363;BME280;11853;48.080;11.960;2023-02-28T15:13:13;95320.22;;;3.08;79.60
23363;BME280;11853;48.080;11.960;2023-02-28T15:16:04;95316.94;;;3.19;78.57
23363;BME280;11853;48.080;11.960;2023-02-28T15:21:23;95314.31;;;3.19;78.67
23363;BME280;11853;48.080;11.960;2023-02-28T15:23:56;95317.88;;;3.18;78.93
23363;BME280;11853;48.080;11.960;2023-02-28T15:26:27;95313.28;;;3.22;78.97
23363;BME280;11853;48.080;11.960;2023-02-28T15:29:00;95321.41;;;3.17;79.48
23363;BME280;11853;48.080;11.960;2023-02-28T15:31:32;95321.53;;;3.15;79.11
23363;BME280;11853;48.080;11.960;2023-02-28T15:34:04;95318.63;;;3.06;80.81
23363;BME280;11853;48.080;11.960;2023-02-28T15:36:32;95328.38;;;3.18;80.69